createdAt,value
2018-04-11T00:00:20.218Z,0.00
2018-04-11T00:01:20.182Z,0.00
2018-04-11T00:02:20.211Z,0.00
2018-04-11T00:03:20.101Z,0.00
2018-04-11T00:04:20.131Z,0.00
2018-04-11T00:05:20.070Z,0.00
2018-04-11T00:06:20.233Z,0.00
2018-04-11T00:07:20.031Z,0.00
2018-04-11T00:08:20.137Z,0.00
2018-04-11T00:09:19.976Z,0.00
2018-04-11T00:10:20.058Z,0.00
2018-04-11T00:11:19.929Z,0.00
2018-04-11T00:12:20.086Z,0.00
2018-04-11T00:13:19.897Z,0.00
2018-04-11T00:14:19.988Z,0.00
2018-04-11T00:15:19.858Z,0.00
2018-04-11T00:16:19.890Z,0.00
2018-04-11T00:17:19.818Z,0.00
2018-04-11T00:18:19.898Z,0.00
2018-04-11T00:19:19.801Z,0.00
2018-04-11T00:20:19.935Z,0.00
2018-04-11T00:21:19.718Z,0.00
2018-04-11T00:22:19.764Z,0.00
2018-04-11T00:23:19.689Z,0.00
2018-04-11T00:24:19.864Z,0.00
2018-04-11T00:25:19.638Z,0.00
2018-04-11T00:26:19.804Z,0.00
2018-04-11T00:27:19.627Z,0.00
2018-04-11T00:28:19.681Z,0.00
2018-04-11T00:29:19.544Z,0.00
2018-04-11T00:30:19.701Z,0.00
2018-04-11T00:31:19.510Z,0.00
2018-04-11T00:32:19.591Z,0.00
2018-04-11T00:33:19.451Z,0.00
2018-04-11T00:34:19.627Z,0.00
2018-04-11T00:35:19.407Z,0.00
2018-04-11T00:36:19.519Z,0.00
2018-04-11T00:37:19.379Z,0.00
2018-04-11T00:38:19.558Z,0.00
2018-04-11T00:39:19.339Z,0.00
2018-04-11T00:40:19.373Z,0.00
2018-04-11T00:41:19.312Z,0.00
2018-04-11T00:42:19.455Z,0.00
2018-04-11T00:43:19.222Z,0.00
2018-04-11T00:44:19.373Z,0.00
2018-04-11T00:45:19.212Z,0.00
2018-04-11T00:46:19.346Z,0.00
2018-04-11T00:47:19.176Z,0.00
2018-04-11T00:48:19.334Z,0.00
2018-04-11T00:49:19.099Z,0.00
2018-04-11T00:50:19.246Z,0.00
2018-04-11T00:51:19.062Z,0.00
2018-04-11T00:52:19.123Z,0.00
2018-04-11T00:53:19.015Z,0.00
2018-04-11T00:54:19.121Z,0.00
2018-04-11T00:55:18.974Z,0.00
2018-04-11T00:56:19.143Z,0.00
2018-04-11T00:57:18.934Z,0.00
2018-04-11T00:58:19.036Z,0.00
2018-04-11T00:59:18.903Z,0.00
2018-04-11T01:00:18.971Z,0.00
2018-04-11T01:01:18.873Z,0.00
2018-04-11T01:02:18.994Z,0.00
2018-04-11T01:03:18.801Z,0.00
2018-04-11T01:04:18.890Z,0.00
2018-04-11T01:05:18.759Z,0.00
2018-04-11T01:06:18.900Z,0.00
2018-04-11T01:07:18.735Z,0.00
2018-04-11T01:08:18.816Z,0.00
2018-04-11T01:09:18.669Z,0.00
2018-04-11T01:10:18.822Z,0.00
2018-04-11T01:11:18.635Z,0.00
2018-04-11T01:12:19.708Z,0.00
2018-04-11T01:13:18.592Z,0.00
2018-04-11T01:14:18.753Z,0.00
2018-04-11T01:15:18.532Z,0.00
2018-04-11T01:16:18.561Z,0.00
2018-04-11T01:17:18.509Z,0.00
2018-04-11T01:18:18.577Z,0.00
2018-04-11T01:19:18.444Z,0.00
2018-04-11T01:20:18.690Z,0.00
2018-04-11T01:21:18.377Z,0.00
2018-04-11T01:22:18.509Z,0.00
2018-04-11T01:23:18.352Z,0.00
2018-04-11T01:24:18.541Z,0.00
2018-04-11T01:25:18.320Z,0.00
2018-04-11T01:26:18.421Z,0.00
2018-04-11T01:27:18.255Z,0.00
2018-04-11T01:28:18.429Z,0.00
2018-04-11T01:29:18.218Z,0.00
2018-04-11T01:30:18.247Z,0.00
2018-04-11T01:31:18.162Z,0.00
2018-04-11T01:32:18.395Z,0.00
2018-04-11T01:33:18.161Z,0.00
2018-04-11T01:34:18.279Z,0.00
2018-04-11T01:35:18.082Z,0.00
2018-04-11T01:36:18.073Z,0.00
2018-04-11T01:37:18.039Z,0.00
2018-04-11T01:38:18.201Z,0.00
2018-04-11T01:39:18.001Z,0.00
2018-04-11T01:40:17.999Z,0.00
2018-04-11T01:41:17.979Z,0.00
2018-04-11T01:42:19.065Z,0.00
2018-04-11T01:43:17.889Z,0.00
2018-04-11T01:44:18.033Z,0.00
2018-04-11T01:45:17.909Z,0.00
2018-04-11T01:46:17.954Z,0.00
2018-04-11T01:47:17.816Z,0.00
2018-04-11T01:48:17.864Z,0.00
2018-04-11T01:49:17.804Z,0.00
2018-04-11T01:50:18.797Z,0.00
2018-04-11T01:51:17.743Z,0.00
2018-04-11T01:52:18.802Z,0.00
2018-04-11T01:53:17.659Z,0.00
2018-04-11T01:54:17.685Z,0.00
2018-04-11T01:55:17.641Z,0.00
2018-04-11T01:56:17.714Z,0.00
2018-04-11T01:57:17.587Z,0.00
2018-04-11T01:58:17.606Z,0.00
2018-04-11T01:59:17.543Z,0.00
2018-04-11T02:00:17.637Z,0.00
2018-04-11T02:01:17.501Z,0.00
2018-04-11T02:02:17.564Z,0.00
2018-04-11T02:03:17.436Z,0.00
2018-04-11T02:04:17.543Z,0.00
2018-04-11T02:05:17.426Z,0.00
2018-04-11T02:06:17.481Z,0.00
2018-04-11T02:07:17.398Z,0.00
2018-04-11T02:08:17.379Z,0.00
2018-04-11T02:09:17.318Z,0.00
2018-04-11T02:10:17.381Z,0.00
2018-04-11T02:11:17.277Z,0.00
2018-04-11T02:12:17.309Z,0.00
2018-04-11T02:13:17.279Z,0.00
2018-04-11T02:14:17.339Z,0.00
2018-04-11T02:15:17.202Z,0.00
2018-04-11T02:16:17.225Z,0.00
2018-04-11T02:17:17.170Z,0.00
2018-04-11T02:18:17.240Z,0.00
2018-04-11T02:19:17.170Z,0.00
2018-04-11T02:20:17.153Z,0.00
2018-04-11T02:21:17.121Z,0.00
2018-04-11T02:22:17.155Z,0.00
2018-04-11T02:23:17.014Z,0.00
2018-04-11T02:24:17.115Z,0.00
2018-04-11T02:25:16.957Z,0.00
2018-04-11T02:26:17.029Z,0.00
2018-04-11T02:27:16.955Z,0.00
2018-04-11T02:28:17.027Z,0.00
2018-04-11T02:29:16.871Z,0.00
2018-04-11T02:30:16.953Z,0.00
2018-04-11T02:31:16.806Z,0.00
2018-04-11T02:32:16.921Z,0.00
2018-04-11T02:33:16.778Z,0.00
2018-04-11T02:34:16.865Z,0.00
2018-04-11T02:35:16.730Z,0.00
2018-04-11T02:36:16.789Z,0.00
2018-04-11T02:37:16.695Z,0.00
2018-04-11T02:38:16.835Z,0.00
2018-04-11T02:39:16.648Z,0.00
2018-04-11T02:40:16.701Z,0.00
2018-04-11T02:41:16.602Z,0.00
2018-04-11T02:42:16.705Z,0.00
2018-04-11T02:43:16.614Z,0.00
2018-04-11T02:44:16.641Z,0.00
2018-04-11T02:45:16.541Z,0.00
2018-04-11T02:46:16.647Z,0.00
2018-04-11T02:47:16.463Z,0.00
2018-04-11T02:48:16.541Z,0.00
2018-04-11T02:49:16.419Z,0.00
2018-04-11T02:50:16.527Z,0.00
2018-04-11T02:51:16.359Z,0.00
2018-04-11T02:52:16.426Z,0.00
2018-04-11T02:53:16.354Z,0.00
2018-04-11T02:54:16.371Z,0.00
2018-04-11T02:55:16.289Z,0.00
2018-04-11T02:56:16.369Z,0.00
2018-04-11T02:57:16.234Z,0.00
2018-04-11T02:58:16.304Z,0.00
2018-04-11T02:59:16.181Z,0.00
2018-04-11T03:00:16.388Z,0.00
2018-04-11T03:01:16.156Z,0.00
2018-04-11T03:02:16.186Z,0.00
2018-04-11T03:03:16.124Z,0.00
2018-04-11T03:04:16.216Z,0.00
2018-04-11T03:05:16.051Z,0.00
2018-04-11T03:06:16.133Z,0.00
2018-04-11T03:07:15.994Z,0.00
2018-04-11T03:08:16.055Z,0.00
2018-04-11T03:09:15.971Z,0.00
2018-04-11T03:10:16.042Z,0.00
2018-04-11T03:11:15.966Z,0.00
2018-04-11T03:12:15.965Z,0.00
2018-04-11T03:13:15.862Z,0.00
2018-04-11T03:14:15.966Z,0.00
2018-04-11T03:15:15.818Z,0.00
2018-04-11T03:16:15.921Z,0.00
2018-04-11T03:17:15.781Z,0.00
2018-04-11T03:18:15.900Z,0.00
2018-04-11T03:19:15.743Z,0.00
2018-04-11T03:20:15.828Z,0.00
2018-04-11T03:21:15.672Z,0.00
2018-04-11T03:22:15.731Z,0.00
2018-04-11T03:23:15.631Z,0.00
2018-04-11T03:24:15.750Z,0.00
2018-04-11T03:25:15.594Z,0.00
2018-04-11T03:26:15.630Z,0.00
2018-04-11T03:27:15.541Z,0.00
2018-04-11T03:28:15.646Z,0.00
2018-04-11T03:29:15.508Z,0.00
2018-04-11T03:30:15.558Z,0.00
2018-04-11T03:31:15.444Z,0.00
2018-04-11T03:32:15.577Z,0.00
2018-04-11T03:33:15.424Z,0.00
2018-04-11T03:34:15.494Z,0.00
2018-04-11T03:35:15.356Z,0.00
2018-04-11T03:36:15.408Z,0.00
2018-04-11T03:37:15.314Z,0.00
2018-04-11T03:38:16.455Z,0.00
2018-04-11T03:39:15.281Z,0.00
2018-04-11T03:40:15.317Z,0.00
2018-04-11T03:41:15.224Z,0.00
2018-04-11T03:42:15.339Z,0.00
2018-04-11T03:43:15.185Z,0.00
2018-04-11T03:44:15.251Z,0.00
2018-04-11T03:45:15.128Z,0.00
2018-04-11T03:46:16.187Z,0.00
2018-04-11T03:47:15.100Z,0.00
2018-04-11T03:48:15.206Z,0.00
2018-04-11T03:49:15.053Z,0.00
2018-04-11T03:50:16.159Z,0.00
2018-04-11T03:51:15.006Z,0.00
2018-04-11T03:52:15.095Z,0.00
2018-04-11T03:53:14.987Z,0.00
2018-04-11T03:54:15.031Z,0.00
2018-04-11T03:55:14.906Z,0.00
2018-04-11T03:56:15.037Z,0.00
2018-04-11T03:57:14.856Z,0.00
2018-04-11T03:58:14.943Z,0.00
2018-04-11T03:59:14.807Z,0.00
2018-04-11T04:00:14.962Z,0.00
2018-04-11T04:01:14.765Z,0.00
2018-04-11T04:02:14.872Z,0.00
2018-04-11T04:03:14.717Z,0.00
2018-04-11T04:04:14.781Z,0.00
2018-04-11T04:05:14.686Z,0.00
2018-04-11T04:06:15.805Z,0.00
2018-04-11T04:07:14.648Z,0.00
2018-04-11T04:08:14.708Z,0.00
2018-04-11T04:09:14.577Z,0.00
2018-04-11T04:10:14.731Z,0.00
2018-04-11T04:11:14.559Z,0.00
2018-04-11T04:12:14.636Z,0.00
2018-04-11T04:13:14.499Z,0.00
2018-04-11T04:14:14.538Z,0.00
2018-04-11T04:15:14.452Z,0.00
2018-04-11T04:16:14.554Z,0.00
2018-04-11T04:17:14.411Z,0.00
2018-04-11T04:18:14.476Z,0.00
2018-04-11T04:19:14.385Z,0.00
2018-04-11T04:20:14.493Z,0.00
2018-04-11T04:21:14.304Z,0.00
2018-04-11T04:22:14.379Z,0.00
2018-04-11T04:23:14.264Z,0.00
2018-04-11T04:24:14.395Z,0.00
2018-04-11T04:25:14.220Z,0.00
2018-04-11T04:26:14.304Z,0.00
2018-04-11T04:27:14.167Z,0.00
2018-04-11T04:28:14.227Z,0.00
2018-04-11T04:29:14.127Z,0.00
2018-04-11T04:30:14.232Z,0.00
2018-04-11T04:31:14.071Z,0.00
2018-04-11T04:32:14.154Z,0.00
2018-04-11T04:33:14.028Z,0.00
2018-04-11T04:34:14.160Z,0.00
2018-04-11T04:35:13.977Z,0.00
2018-04-11T04:36:14.082Z,0.00
2018-04-11T04:37:13.944Z,0.00
2018-04-11T04:38:14.093Z,5.63
2018-04-11T04:39:13.901Z,5.63
2018-04-11T04:40:13.987Z,5.63
2018-04-11T04:41:13.867Z,5.63
2018-04-11T04:42:13.923Z,5.63
2018-04-11T04:43:13.823Z,5.63
2018-04-11T04:44:13.957Z,11.25
2018-04-11T04:45:13.773Z,11.25
2018-04-11T04:46:13.815Z,11.25
2018-04-11T04:47:13.725Z,11.25
2018-04-11T04:48:13.849Z,11.25
2018-04-11T04:49:13.659Z,11.25
2018-04-11T04:50:13.744Z,16.88
2018-04-11T04:51:13.658Z,16.88
2018-04-11T04:52:13.783Z,16.88
2018-04-11T04:53:13.597Z,16.88
2018-04-11T04:54:13.701Z,16.88
2018-04-11T04:55:13.547Z,22.50
2018-04-11T04:56:13.591Z,22.50
2018-04-11T04:57:13.495Z,22.50
2018-04-11T04:58:13.509Z,22.50
2018-04-11T04:59:13.440Z,22.50
2018-04-11T05:00:13.522Z,28.13
2018-04-11T05:01:13.390Z,28.13
2018-04-11T05:02:13.516Z,28.13
2018-04-11T05:03:13.355Z,28.13
2018-04-11T05:04:13.431Z,28.13
2018-04-11T05:05:13.332Z,33.75
2018-04-11T05:06:14.364Z,33.75
2018-04-11T05:07:13.261Z,33.75
2018-04-11T05:08:14.438Z,33.75
2018-04-11T05:09:13.205Z,33.75
2018-04-11T05:10:13.265Z,39.38
2018-04-11T05:11:13.154Z,39.38
2018-04-11T05:12:13.315Z,39.38
2018-04-11T05:13:13.101Z,39.38
2018-04-11T05:14:13.255Z,45.00
2018-04-11T05:15:13.068Z,45.00
2018-04-11T05:16:13.233Z,45.00
2018-04-11T05:17:13.005Z,45.00
2018-04-11T05:18:13.144Z,45.00
2018-04-11T05:19:12.965Z,45.00
2018-04-11T05:20:13.032Z,45.00
2018-04-11T05:21:12.955Z,50.63
2018-04-11T05:22:13.065Z,50.63
2018-04-11T05:23:12.876Z,50.63
2018-04-11T05:24:12.966Z,50.63
2018-04-11T05:25:12.837Z,56.25
2018-04-11T05:26:12.987Z,56.25
2018-04-11T05:27:12.834Z,56.25
2018-04-11T05:28:12.879Z,61.88
2018-04-11T05:29:12.726Z,61.88
2018-04-11T05:30:12.786Z,67.50
2018-04-11T05:31:12.681Z,67.50
2018-04-11T05:32:12.799Z,73.13
2018-04-11T05:33:12.718Z,73.13
2018-04-11T05:34:12.726Z,78.75
2018-04-11T05:35:12.590Z,78.75
2018-04-11T05:36:12.753Z,84.38
2018-04-11T05:37:12.538Z,90.00
2018-04-11T05:38:12.648Z,90.00
2018-04-11T05:39:12.513Z,95.63
2018-04-11T05:40:12.736Z,95.63
2018-04-11T05:41:12.467Z,101.25
2018-04-11T05:42:12.579Z,101.25
2018-04-11T05:43:12.418Z,101.25
2018-04-11T05:44:12.514Z,101.25
2018-04-11T05:45:12.363Z,101.25
2018-04-11T05:46:12.504Z,95.63
2018-04-11T05:47:12.307Z,95.63
2018-04-11T05:48:12.411Z,95.63
2018-04-11T05:49:12.270Z,101.25
2018-04-11T05:50:12.417Z,101.25
2018-04-11T05:51:12.258Z,106.88
2018-04-11T05:52:12.332Z,106.88
2018-04-11T05:53:12.174Z,112.50
2018-04-11T05:54:12.377Z,118.13
2018-04-11T05:55:12.126Z,118.13
2018-04-11T05:56:12.309Z,123.75
2018-04-11T05:57:12.094Z,129.38
2018-04-11T05:58:12.050Z,129.38
2018-04-11T05:59:12.032Z,129.38
2018-04-11T06:00:12.043Z,129.38
2018-04-11T06:01:11.989Z,129.38
2018-04-11T06:02:11.958Z,129.38
2018-04-11T06:03:12.099Z,129.38
2018-04-11T06:04:11.925Z,135.00
2018-04-11T06:05:11.882Z,135.00
2018-04-11T06:06:11.871Z,135.00
2018-04-11T06:07:11.829Z,140.63
2018-04-11T06:08:11.825Z,140.63
2018-04-11T06:09:11.791Z,146.25
2018-04-11T06:10:11.777Z,146.25
2018-04-11T06:11:11.789Z,151.88
2018-04-11T06:12:11.853Z,157.50
2018-04-11T06:13:11.709Z,163.13
2018-04-11T06:14:11.661Z,163.13
2018-04-11T06:15:11.661Z,163.13
2018-04-11T06:16:11.626Z,168.75
2018-04-11T06:17:11.635Z,168.75
2018-04-11T06:18:11.587Z,168.75
2018-04-11T06:19:11.555Z,174.38
2018-04-11T06:20:11.535Z,180.00
2018-04-11T06:21:11.541Z,185.63
2018-04-11T06:22:11.558Z,191.25
2018-04-11T06:23:11.472Z,196.88
2018-04-11T06:24:11.428Z,202.50
2018-04-11T06:25:11.418Z,202.50
2018-04-11T06:26:11.382Z,202.50
2018-04-11T06:27:11.366Z,196.88
2018-04-11T06:28:11.553Z,191.25
2018-04-11T06:29:11.321Z,196.88
2018-04-11T06:30:12.435Z,202.50
2018-04-11T06:31:11.301Z,208.13
2018-04-11T06:32:11.322Z,202.50
2018-04-11T06:33:11.229Z,196.88
2018-04-11T06:34:11.335Z,185.63
2018-04-11T06:35:11.218Z,174.38
2018-04-11T06:36:11.256Z,168.75
2018-04-11T06:37:11.144Z,163.13
2018-04-11T06:38:11.269Z,163.13
2018-04-11T06:39:11.106Z,163.13
2018-04-11T06:40:11.165Z,168.75
2018-04-11T06:41:11.048Z,168.75
2018-04-11T06:42:11.108Z,174.38
2018-04-11T06:43:11.023Z,180.00
2018-04-11T06:44:11.103Z,185.63
2018-04-11T06:45:10.943Z,191.25
2018-04-11T06:46:11.010Z,196.88
2018-04-11T06:47:10.902Z,202.50
2018-04-11T06:48:10.999Z,202.50
2018-04-11T06:49:10.853Z,208.13
2018-04-11T06:50:10.904Z,219.38
2018-04-11T06:51:10.812Z,236.25
2018-04-11T06:52:10.940Z,247.50
2018-04-11T06:53:10.783Z,253.13
2018-04-11T06:54:10.850Z,258.75
2018-04-11T06:55:10.736Z,258.75
2018-04-11T06:56:11.782Z,258.75
2018-04-11T06:57:10.651Z,258.75
2018-04-11T06:58:10.773Z,247.50
2018-04-11T06:59:10.618Z,241.88
2018-04-11T07:00:10.673Z,241.88
2018-04-11T07:01:10.589Z,247.50
2018-04-11T07:02:10.676Z,247.50
2018-04-11T07:03:10.515Z,253.13
2018-04-11T07:04:10.599Z,264.38
2018-04-11T07:05:10.470Z,264.38
2018-04-11T07:06:10.528Z,270.00
2018-04-11T07:07:10.430Z,264.38
2018-04-11T07:08:10.499Z,264.38
2018-04-11T07:09:10.471Z,258.75
2018-04-11T07:10:15.160Z,258.75
2018-04-11T07:11:10.403Z,258.75
2018-04-11T07:12:11.366Z,264.38
2018-04-11T07:13:10.281Z,264.38
2018-04-11T07:14:11.467Z,264.38
2018-04-11T07:15:10.273Z,258.75
2018-04-11T07:16:10.280Z,258.75
2018-04-11T07:17:10.205Z,258.75
2018-04-11T07:18:10.273Z,258.75
2018-04-11T07:19:10.143Z,247.50
2018-04-11T07:20:10.206Z,241.88
2018-04-11T07:21:10.123Z,241.88
2018-04-11T07:22:10.172Z,247.50
2018-04-11T07:23:10.042Z,247.50
2018-04-11T07:24:10.126Z,253.13
2018-04-11T07:25:10.035Z,253.13
2018-04-11T07:26:10.081Z,253.13
2018-04-11T07:27:09.984Z,253.13
2018-04-11T07:28:10.042Z,258.75
2018-04-11T07:29:09.940Z,253.13
2018-04-11T07:30:24.711Z,258.75
2018-04-11T07:31:09.925Z,258.75
2018-04-11T07:32:11.882Z,258.75
2018-04-11T07:33:10.003Z,253.13
2018-04-11T07:34:31.905Z,253.13
2018-04-11T07:35:09.816Z,253.13
2018-04-11T07:36:41.752Z,253.13
2018-04-11T07:37:09.711Z,253.13
2018-04-11T07:38:09.728Z,253.13
2018-04-11T07:39:33.662Z,258.75
2018-04-11T07:40:09.727Z,264.38
2018-04-11T07:41:14.731Z,264.38
2018-04-11T07:42:09.665Z,270.00
2018-04-11T07:43:20.195Z,270.00
2018-04-11T07:44:09.577Z,270.00
2018-04-11T08:07:30.629Z,270.00
2018-04-11T08:08:30.679Z,275.63
2018-04-11T08:09:30.602Z,270.00
2018-04-11T08:10:30.556Z,275.63
2018-04-11T08:11:30.549Z,270.00
2018-04-11T08:12:30.453Z,275.63
2018-04-11T08:13:30.457Z,275.63
2018-04-11T08:14:30.416Z,275.63
2018-04-11T08:15:31.527Z,281.25
2018-04-11T08:16:30.455Z,286.88
2018-04-11T08:17:37.132Z,286.88
2018-04-11T08:18:30.344Z,281.25
2018-04-11T08:19:51.307Z,281.25
2018-04-11T08:20:30.274Z,275.63
2018-04-11T08:21:31.312Z,275.63
2018-04-11T08:22:30.245Z,270.00
2018-04-11T08:23:35.137Z,270.00
2018-04-11T08:24:30.221Z,270.00
2018-04-11T08:25:37.210Z,270.00
2018-04-11T08:26:30.195Z,270.00
2018-04-11T08:28:08.190Z,270.00
2018-04-11T08:28:30.132Z,270.00
2018-04-11T08:29:30.087Z,270.00
2018-04-11T08:30:31.137Z,270.00
2018-04-11T08:31:30.056Z,270.00
2018-04-11T08:32:32.089Z,270.00
2018-04-11T08:33:30.017Z,275.63
2018-04-11T08:34:32.096Z,270.00
2018-04-11T08:35:29.930Z,270.00
2018-04-11T08:36:30.013Z,270.00
2018-04-11T08:37:29.875Z,270.00
2018-04-11T08:38:35.645Z,270.00
2018-04-11T08:39:29.828Z,270.00
2018-04-11T08:40:34.636Z,270.00
2018-04-11T08:41:29.872Z,270.00
2018-04-11T08:42:29.889Z,264.38
2018-04-11T08:43:29.744Z,258.75
2018-04-11T08:44:34.683Z,258.75
2018-04-11T08:45:29.733Z,247.50
2018-04-11T08:46:35.654Z,253.13
2018-04-11T08:47:29.656Z,247.50
2018-04-11T08:48:45.663Z,253.13
2018-04-11T08:49:29.661Z,247.50
2018-04-11T08:50:29.693Z,247.50
2018-04-11T08:51:29.561Z,241.88
2018-04-11T08:52:30.688Z,241.88
2018-04-11T08:53:29.552Z,241.88
2018-04-11T08:54:31.561Z,236.25
2018-04-11T08:55:29.482Z,241.88
2018-04-11T08:56:29.519Z,247.50
2018-04-11T08:57:29.465Z,253.13
2018-04-11T08:58:29.434Z,253.13
2018-04-11T08:59:29.388Z,258.75
2018-04-11T09:00:29.447Z,270.00
2018-04-11T09:01:29.376Z,270.00
2018-04-11T09:02:29.354Z,275.63
2018-04-11T09:03:29.291Z,275.63
2018-04-11T09:04:29.353Z,281.25
2018-04-11T09:05:29.296Z,281.25
2018-04-11T09:06:29.270Z,292.50
2018-04-11T09:07:29.197Z,286.88
2018-04-11T09:08:29.234Z,286.88
2018-04-11T09:09:29.132Z,286.88
2018-04-11T09:10:29.197Z,286.88
2018-04-11T09:11:29.111Z,286.88
2018-04-11T09:12:29.102Z,286.88
2018-04-11T09:13:29.048Z,281.25
2018-04-11T09:14:29.128Z,281.25
2018-04-11T09:15:29.012Z,275.63
2018-04-11T09:16:29.036Z,275.63
2018-04-11T09:17:28.978Z,275.63
2018-04-11T09:18:29.040Z,275.63
2018-04-11T09:19:28.934Z,275.63
2018-04-11T09:20:28.957Z,275.63
2018-04-11T09:21:28.882Z,281.25
2018-04-11T09:22:28.856Z,275.63
2018-04-11T09:23:28.834Z,275.63
2018-04-11T09:24:28.878Z,281.25
2018-04-11T09:25:28.808Z,286.88
2018-04-11T09:26:28.793Z,286.88
2018-04-11T09:27:28.766Z,298.13
2018-04-11T09:28:28.810Z,286.88
2018-04-11T09:29:28.692Z,286.88
2018-04-11T09:30:28.704Z,286.88
2018-04-11T09:31:28.684Z,286.88
2018-04-11T09:32:28.731Z,281.25
2018-04-11T09:33:28.580Z,281.25
2018-04-11T09:34:28.648Z,281.25
2018-04-11T09:35:28.599Z,281.25
2018-04-11T09:36:29.594Z,281.25
2018-04-11T09:37:28.546Z,286.88
2018-04-11T09:38:28.559Z,286.88
2018-04-11T09:39:28.462Z,286.88
2018-04-11T09:40:28.462Z,281.25
2018-04-11T09:41:28.441Z,286.88
2018-04-11T09:42:28.511Z,286.88
2018-04-11T09:43:28.357Z,286.88
2018-04-11T09:44:28.403Z,286.88
2018-04-11T09:45:28.342Z,286.88
2018-04-11T09:46:28.418Z,292.50
2018-04-11T09:47:28.299Z,292.50
2018-04-11T09:48:28.339Z,286.88
2018-04-11T09:49:28.254Z,337.50
2018-04-11T09:50:28.244Z,343.13
2018-04-11T09:51:28.191Z,331.88
2018-04-11T09:52:28.249Z,371.25
2018-04-11T09:53:28.132Z,421.88
2018-04-11T09:54:28.169Z,393.75
2018-04-11T09:55:28.110Z,348.75
2018-04-11T09:56:28.158Z,320.63
2018-04-11T09:57:28.091Z,309.38
2018-04-11T09:58:28.076Z,309.38
2018-04-11T09:59:28.003Z,309.38
2018-04-11T10:00:28.144Z,303.75
2018-04-11T10:01:27.967Z,303.75
2018-04-11T10:02:27.992Z,270.00
2018-04-11T10:03:27.933Z,303.75
2018-04-11T10:04:28.007Z,292.50
2018-04-11T10:05:27.916Z,320.63
2018-04-11T10:06:27.921Z,298.13
2018-04-11T10:07:27.868Z,343.13
2018-04-11T10:08:27.866Z,393.75
2018-04-11T10:09:27.820Z,450.00
2018-04-11T10:10:27.860Z,427.50
2018-04-11T10:11:27.750Z,455.63
2018-04-11T10:12:27.739Z,466.88
2018-04-11T10:13:27.696Z,450.00
2018-04-11T10:14:27.840Z,405.00
2018-04-11T10:15:27.674Z,506.25
2018-04-11T10:16:27.773Z,568.13
2018-04-11T10:17:27.627Z,483.75
2018-04-11T10:18:27.698Z,450.00
2018-04-11T10:19:27.561Z,433.13
2018-04-11T10:20:27.697Z,427.50
2018-04-11T10:21:27.533Z,450.00
2018-04-11T10:22:27.608Z,393.75
2018-04-11T10:23:27.471Z,444.38
2018-04-11T10:24:27.623Z,455.63
2018-04-11T10:25:27.430Z,405.00
2018-04-11T10:26:27.518Z,466.88
2018-04-11T10:27:27.417Z,371.25
2018-04-11T10:28:27.448Z,354.38
2018-04-11T10:29:27.352Z,393.75
2018-04-11T10:30:27.354Z,343.13
2018-04-11T10:31:27.348Z,315.00
2018-04-11T10:32:27.362Z,337.50
2018-04-11T10:33:27.255Z,360.00
2018-04-11T10:34:27.289Z,405.00
2018-04-11T10:35:27.196Z,348.75
2018-04-11T10:36:27.306Z,348.75
2018-04-11T10:37:27.180Z,337.50
2018-04-11T10:38:27.247Z,337.50
2018-04-11T10:39:27.203Z,371.25
2018-04-11T10:40:27.216Z,444.38
2018-04-11T10:41:27.071Z,478.13
2018-04-11T10:42:27.155Z,438.75
2018-04-11T10:43:27.013Z,393.75
2018-04-11T10:44:27.071Z,433.13
2018-04-11T10:45:26.989Z,450.00
2018-04-11T10:46:26.957Z,472.50
2018-04-11T10:47:26.945Z,461.25
2018-04-11T10:48:26.975Z,511.88
2018-04-11T10:49:26.919Z,556.88
2018-04-11T10:50:26.891Z,528.75
2018-04-11T10:51:26.900Z,399.38
2018-04-11T10:52:27.850Z,382.50
2018-04-11T10:53:26.809Z,444.38
2018-04-11T10:54:26.798Z,455.63
2018-04-11T10:55:26.753Z,472.50
2018-04-11T10:56:26.810Z,421.88
2018-04-11T10:57:26.740Z,450.00
2018-04-11T10:58:26.723Z,427.50
2018-04-11T10:59:26.790Z,466.88
2018-04-11T11:00:26.719Z,472.50
2018-04-11T11:01:26.636Z,399.38
2018-04-11T11:02:26.641Z,331.88
2018-04-11T11:03:26.568Z,315.00
2018-04-11T11:04:26.653Z,298.13
2018-04-11T11:05:26.514Z,309.38
2018-04-11T11:06:26.518Z,365.63
2018-04-11T11:07:26.561Z,438.75
2018-04-11T11:08:26.568Z,534.38
2018-04-11T11:09:26.442Z,483.75
2018-04-11T11:10:26.481Z,444.38
2018-04-11T11:11:26.388Z,399.38
2018-04-11T11:12:26.399Z,393.75
2018-04-11T11:13:26.363Z,506.25
2018-04-11T11:14:26.405Z,607.50
2018-04-11T11:15:26.319Z,630.00
2018-04-11T11:16:26.344Z,596.25
2018-04-11T11:17:26.282Z,534.38
2018-04-11T11:18:26.339Z,461.25
2018-04-11T11:19:26.211Z,433.13
2018-04-11T11:20:26.240Z,421.88
2018-04-11T11:21:26.190Z,405.00
2018-04-11T11:22:26.261Z,438.75
2018-04-11T11:23:26.143Z,461.25
2018-04-11T11:24:26.201Z,534.38
2018-04-11T11:25:26.078Z,545.63
2018-04-11T11:26:26.168Z,511.88
2018-04-11T11:27:26.041Z,534.38
2018-04-11T11:28:26.089Z,562.50
2018-04-11T11:29:26.031Z,511.88
2018-04-11T11:30:25.999Z,438.75
2018-04-11T11:31:25.948Z,483.75
2018-04-11T11:32:27.071Z,461.25
2018-04-11T11:33:25.949Z,348.75
2018-04-11T11:34:25.920Z,348.75
2018-04-11T11:35:25.936Z,343.13
2018-04-11T11:36:25.875Z,376.88
2018-04-11T11:37:25.852Z,461.25
2018-04-11T11:38:25.819Z,405.00
2018-04-11T11:39:25.859Z,337.50
2018-04-11T11:40:25.754Z,331.88
2018-04-11T11:41:25.763Z,365.63
2018-04-11T11:42:25.714Z,376.88
2018-04-11T11:43:25.773Z,331.88
2018-04-11T11:44:25.671Z,275.63
2018-04-11T11:45:25.636Z,230.63
2018-04-11T11:46:25.621Z,219.38
2018-04-11T11:47:25.706Z,185.63
2018-04-11T11:48:25.607Z,202.50
2018-04-11T11:49:25.645Z,253.13
2018-04-11T11:50:25.529Z,247.50
2018-04-11T11:51:25.525Z,213.75
2018-04-11T11:52:25.489Z,213.75
2018-04-11T11:53:25.530Z,208.13
2018-04-11T11:54:25.438Z,180.00
2018-04-11T11:55:25.446Z,129.38
2018-04-11T11:56:25.394Z,90.00
2018-04-11T11:57:25.466Z,95.63
2018-04-11T11:58:25.351Z,112.50
2018-04-11T11:59:25.370Z,151.88
2018-04-11T12:00:25.298Z,230.63
2018-04-11T12:01:25.377Z,331.88
2018-04-11T12:02:25.263Z,281.25
2018-04-11T12:03:25.288Z,191.25
2018-04-11T12:04:25.228Z,157.50
2018-04-11T12:05:25.295Z,168.75
2018-04-11T12:06:25.166Z,213.75
2018-04-11T12:07:25.208Z,253.13
2018-04-11T12:08:25.114Z,241.88
2018-04-11T12:09:25.125Z,225.00
2018-04-11T12:10:25.073Z,258.75
2018-04-11T12:11:27.082Z,292.50
2018-04-11T12:12:25.036Z,247.50
2018-04-11T12:13:25.048Z,185.63
2018-04-11T12:14:25.004Z,185.63
2018-04-11T12:15:25.060Z,213.75
2018-04-11T12:16:24.939Z,219.38
2018-04-11T12:17:24.990Z,225.00
2018-04-11T12:18:24.907Z,241.88
2018-04-11T12:19:25.029Z,348.75
2018-04-11T12:20:24.853Z,466.88
2018-04-11T12:21:24.914Z,523.13
2018-04-11T12:22:24.808Z,528.75
2018-04-11T12:23:24.801Z,500.63
2018-04-11T12:24:24.788Z,466.88
2018-04-11T12:25:24.820Z,478.13
2018-04-11T12:26:24.751Z,545.63
2018-04-11T12:27:24.730Z,596.25
2018-04-11T12:28:24.674Z,624.38
2018-04-11T12:29:24.741Z,658.13
2018-04-11T12:30:24.627Z,697.50
2018-04-11T12:31:24.656Z,697.50
2018-04-11T12:32:24.595Z,669.38
2018-04-11T12:33:26.607Z,652.50
2018-04-11T12:34:24.538Z,551.25
2018-04-11T12:35:25.600Z,523.13
2018-04-11T12:36:24.508Z,556.88
2018-04-11T12:37:25.526Z,545.63
2018-04-11T12:38:24.453Z,523.13
2018-04-11T12:39:26.552Z,511.88
2018-04-11T12:40:24.400Z,478.13
2018-04-11T12:41:25.442Z,455.63
2018-04-11T12:42:24.433Z,405.00
2018-04-11T12:43:24.421Z,354.38
2018-04-11T12:44:24.318Z,286.88
2018-04-11T12:45:24.295Z,258.75
2018-04-11T12:46:24.441Z,292.50
2018-04-11T12:47:24.246Z,371.25
2018-04-11T12:48:26.404Z,421.88
2018-04-11T12:49:24.211Z,405.00
2018-04-11T12:50:24.267Z,444.38
2018-04-11T12:51:24.169Z,500.63
2018-04-11T12:52:26.220Z,466.88
2018-04-11T12:53:24.126Z,371.25
2018-04-11T12:54:24.190Z,438.75
2018-04-11T12:55:24.105Z,556.88
2018-04-11T12:56:24.100Z,506.25
2018-04-11T12:57:24.024Z,433.13
2018-04-11T12:58:24.103Z,444.38
2018-04-11T12:59:23.992Z,517.50
2018-04-11T13:00:24.021Z,421.88
2018-04-11T13:01:23.938Z,354.38
2018-04-11T13:02:24.043Z,326.25
2018-04-11T13:03:23.909Z,343.13
2018-04-11T13:04:29.693Z,405.00
2018-04-11T13:05:23.873Z,421.88
2018-04-11T13:06:24.169Z,405.00
2018-04-11T13:07:23.822Z,331.88
2018-04-11T13:08:29.821Z,264.38
2018-04-11T13:09:23.835Z,236.25
2018-04-11T13:10:23.740Z,225.00